sensor_id;sensor_type;location;lat;lon;timestamp;pressure;altitude;pressure_sealevel;temperature;humidity
71504;BME280;59323;50.874;7.028;2024-02-21T00:00:16;102009.84;;;8.30;100.00
71504;BME280;59323;50.874;7.028;2024-02-21T00:02:42;102009.34;;;8.28;100.00
71504;BME280;59323;50.874;7.028;2024-02-21T00:05:10;101999.00;;;8.30;100.00
71504;BME280;59323;50.874;7.028;2024-02-21T00:07:35;101995.81;;;8.28;100.00
71504;BME280;59323;50.874;7.028;2024-02-21T00:10:03;101997.72;;;8.27;100.00
71504;BME280;59323;50.874;7.028;2024-02-21T00:12:29;101996.44;;;8.25;100.00
71504;BME280;59323;50.874;7.028;2024-02-21T00:14:54;101989.91;;;8.26;100.00
71504;BME280;59323;50.874;7.028;2024-02-21T00:17:22;101985.31;;;8.26;100.00
71504;BME280;59323;50.874;7.028;2024-02-21T00:19:47;101992.31;;;8.27;100.00
71504;BME280;59323;50.874;7.028;2024-02-21T00:22:12;101989.91;;;8.26;100.00
71504;BME280;59323;50.874;7.028;2024-02-21T00:24:38;101989.91;;;8.26;100.00
71504;BME280;59323;50.874;7.028;2024-02-21T00:27:03;101976.38;;;8.26;100.00
71504;BME280;59323;50.874;7.028;2024-02-21T00:29:28;101972.41;;;8.23;100.00
71504;BME280;59323;50.874;7.028;2024-02-21T00:31:54;101963.97;;;8.25;100.00
71504;BME280;59323;50.874;7.028;2024-02-21T00:34:21;101972.88;;;8.25;100.00
71504;BME280;59323;50.874;7.028;2024-02-21T00:36:47;101972.41;;;8.23;100.00
71504;BME280;59323;50.874;7.028;2024-02-21T00:39:12;101957.75;;;8.24;100.00
71504;BME280;59323;50.874;7.028;2024-02-21T00:41:40;101965.88;;;8.24;100.00
71504;BME280;59323;50.874;7.028;2024-02-21T00:44:05;101962.38;;;8.24;100.00
71504;BME280;59323;50.874;7.028;2024-02-21T00:46:33;101960.78;;;8.23;100.00
71504;BME280;59323;50.874;7.028;2024-02-21T00:48:58;101962.69;;;8.22;100.00
71504;BME280;59323;50.874;7.028;2024-02-21T00:51:26;101959.50;;;8.20;100.00
71504;BME280;59323;50.874;7.028;2024-02-21T00:53:51;101961.09;;;8.21;100.00
71504;BME280;59323;50.874;7.028;2024-02-21T00:56:16;101962.38;;;8.24;100.00
71504;BME280;59323;50.874;7.028;2024-02-21T00:58:44;101953.75;;;8.22;100.00
71504;BME280;59323;50.874;7.028;2024-02-21T01:01:09;101950.56;;;8.20;100.00
71504;BME280;59323;50.874;7.028;2024-02-21T01:03:34;101938.16;;;8.19;100.00
71504;BME280;59323;50.874;7.028;2024-02-21T01:06:06;101940.88;;;8.19;100.00
71504;BME280;59323;50.874;7.028;2024-02-21T01:08:31;101947.06;;;8.19;100.00
71504;BME280;59323;50.874;7.028;2024-02-21T01:10:57;101946.28;;;8.19;100.00
71504;BME280;59323;50.874;7.028;2024-02-21T01:13:22;101942.47;;;8.20;100.00
71504;BME280;59323;50.874;7.028;2024-02-21T01:15:50;101942.78;;;8.18;100.00
71504;BME280;59323;50.874;7.028;2024-02-21T01:18:15;101928.13;;;8.19;100.00
71504;BME280;59323;50.874;7.028;2024-02-21T01:20:40;101914.59;;;8.19;100.00
71504;BME280;59323;50.874;7.028;2024-02-21T01:23:06;101926.69;;;8.22;100.00
71504;BME280;59323;50.874;7.028;2024-02-21T01:25:31;101934.81;;;8.22;100.00
71504;BME280;59323;50.874;7.028;2024-02-21T01:27:57;101913.94;;;8.22;100.00
71504;BME280;59323;50.874;7.028;2024-02-21T01:30:22;101912.81;;;8.23;100.00
71504;BME280;59323;50.874;7.028;2024-02-21T01:32:47;101925.56;;;8.23;100.00
71504;BME280;59323;50.874;7.028;2024-02-21T01:35:13;101917.75;;;8.21;100.00
71504;BME280;59323;50.874;7.028;2024-02-21T01:37:38;101907.25;;;8.20;100.00
71504;BME280;59323;50.874;7.028;2024-02-21T01:40:07;101906.47;;;8.19;100.00
71504;BME280;59323;50.874;7.028;2024-02-21T01:42:32;101912.34;;;8.21;100.00
71504;BME280;59323;50.874;7.028;2024-02-21T01:45:00;101909.97;;;8.20;100.00
71504;BME280;59323;50.874;7.028;2024-02-21T01:47:25;101910.13;;;8.23;100.00
71504;BME280;59323;50.874;7.028;2024-02-21T01:49:53;101899.28;;;8.23;100.00
71504;BME280;59323;50.874;7.028;2024-02-21T01:52:18;101887.34;;;8.24;100.00
71504;BME280;59323;50.874;7.028;2024-02-21T01:54:44;101889.56;;;8.22;100.00
71504;BME280;59323;50.874;7.028;2024-02-21T01:57:10;101877.16;;;8.21;100.00
71504;BME280;59323;50.874;7.028;2024-02-21T01:59:36;101873.66;;;8.21;100.00
71504;BME280;59323;50.874;7.028;2024-02-21T02:02:01;101878.59;;;8.19;100.00
71504;BME280;59323;50.874;7.028;2024-02-21T02:04:27;101876.19;;;8.17;100.00
71504;BME280;59323;50.874;7.028;2024-02-21T02:06:54;101869.66;;;8.18;100.00
71504;BME280;59323;50.874;7.028;2024-02-21T02:09:20;101861.22;;;8.20;100.00
71504;BME280;59323;50.874;7.028;2024-02-21T02:11:47;101858.84;;;8.18;100.00
71504;BME280;59323;50.874;7.028;2024-02-21T02:14:12;101857.56;;;8.16;100.00
71504;BME280;59323;50.874;7.028;2024-02-21T02:16:38;101856.78;;;8.15;100.00
71504;BME280;59323;50.874;7.028;2024-02-21T02:19:03;101846.75;;;8.16;100.00
71504;BME280;59323;50.874;7.028;2024-02-21T02:21:29;101838.94;;;8.14;100.00
71504;BME280;59323;50.874;7.028;2024-02-21T02:23:56;101826.53;;;8.13;100.00
71504;BME280;59323;50.874;7.028;2024-02-21T02:26:21;101828.44;;;8.13;100.00
71504;BME280;59323;50.874;7.028;2024-02-21T02:28:46;101821.09;;;8.13;100.00
71504;BME280;59323;50.874;7.028;2024-02-21T02:31:12;101820.78;;;8.15;100.00
71504;BME280;59323;50.874;7.028;2024-02-21T02:33:42;101825.09;;;8.16;100.00
71504;BME280;59323;50.874;7.028;2024-02-21T02:36:08;101812.34;;;8.16;100.00
71504;BME280;59323;50.874;7.028;2024-02-21T02:38:33;101802.31;;;8.17;100.00
71504;BME280;59323;50.874;7.028;2024-02-21T02:41:01;101793.06;;;8.18;100.00
71504;BME280;59323;50.874;7.028;2024-02-21T02:43:26;101789.25;;;8.19;100.00
71504;BME280;59323;50.874;7.028;2024-02-21T02:45:51;101794.97;;;8.17;100.00
71504;BME280;59323;50.874;7.028;2024-02-21T02:48:16;101792.59;;;8.16;100.00
71504;BME280;59323;50.874;7.028;2024-02-21T02:50:42;101794.19;;;8.17;100.00
71504;BME280;59323;50.874;7.028;2024-02-21T02:53:07;101791.78;;;8.15;100.00
71504;BME280;59323;50.874;7.028;2024-02-21T02:55:32;101794.66;;;8.19;100.00
71504;BME280;59323;50.874;7.028;2024-02-21T02:58:00;101799.91;;;8.24;100.00
71504;BME280;59323;50.874;7.028;2024-02-21T03:00:25;101793.38;;;8.25;100.00
71504;BME280;59323;50.874;7.028;2024-02-21T03:02:51;101783.66;;;8.24;100.00
71504;BME280;59323;50.874;7.028;2024-02-21T03:05:18;101783.19;;;8.22;100.00
71504;BME280;59323;50.874;7.028;2024-02-21T03:07:44;101792.09;;;8.22;100.00
71504;BME280;59323;50.874;7.028;2024-02-21T03:10:10;101785.88;;;8.22;100.00
71504;BME280;59323;50.874;7.028;2024-02-21T03:12:36;101783.81;;;8.19;100.00
71504;BME280;59323;50.874;7.028;2024-02-21T03:15:03;101783.34;;;8.17;100.00
71504;BME280;59323;50.874;7.028;2024-02-21T03:17:28;101778.25;;;8.15;100.00
71504;BME280;59323;50.874;7.028;2024-02-21T03:19:54;101766.47;;;8.20;100.00
71504;BME280;59323;50.874;7.028;2024-02-21T03:22:20;101760.72;;;8.21;100.00
71504;BME280;59323;50.874;7.028;2024-02-21T03:24:49;101760.09;;;8.16;100.00
71504;BME280;59323;50.874;7.028;2024-02-21T03:27:14;101746.88;;;8.14;100.00
71504;BME280;59323;50.874;7.028;2024-02-21T03:29:39;101746.09;;;8.14;100.00
71504;BME280;59323;50.874;7.028;2024-02-21T03:32:05;101751.84;;;8.12;100.00
71504;BME280;59323;50.874;7.028;2024-02-21T03:34:30;101757.91;;;8.09;100.00
71504;BME280;59323;50.874;7.028;2024-02-21T03:36:56;101747.53;;;8.11;100.00
71504;BME280;59323;50.874;7.028;2024-02-21T03:39:21;101743.41;;;8.05;100.00
71504;BME280;59323;50.874;7.028;2024-02-21T03:41:47;101747.25;;;8.04;100.00
71504;BME280;59323;50.874;7.028;2024-02-21T03:44:12;101751.06;;;8.03;100.00
71504;BME280;59323;50.874;7.028;2024-02-21T03:46:38;101744.53;;;8.04;100.00
71504;BME280;59323;50.874;7.028;2024-02-21T03:49:03;101734.03;;;8.03;100.00
71504;BME280;59323;50.874;7.028;2024-02-21T03:51:28;101735.63;;;8.04;100.00
71504;BME280;59323;50.874;7.028;2024-02-21T03:53:54;101740.22;;;8.03;100.00
71504;BME280;59323;50.874;7.028;2024-02-21T03:56:19;101733.22;;;8.02;100.00
71504;BME280;59323;50.874;7.028;2024-02-21T03:58:44;101731.97;;;8.00;100.00
71504;BME280;59323;50.874;7.028;2024-02-21T04:01:15;101730.84;;;8.01;100.00
71504;BME280;59323;50.874;7.028;2024-02-21T04:03:40;101735.47;;;8.00;100.00
71504;BME280;59323;50.874;7.028;2024-02-21T04:06:06;101734.66;;;8.00;100.00
71504;BME280;59323;50.874;7.028;2024-02-21T04:08:31;101729.56;;;7.98;100.00
71504;BME280;59323;50.874;7.028;2024-02-21T04:10:56;101731.16;;;7.99;100.00
71504;BME280;59323;50.874;7.028;2024-02-21T04:13:22;101736.09;;;7.97;100.00
71504;BME280;59323;50.874;7.028;2024-02-21T04:15:50;101742.47;;;8.01;100.00
71504;BME280;59323;50.874;7.028;2024-02-21T04:18:16;101748.53;;;7.98;100.00
71504;BME280;59323;50.874;7.028;2024-02-21T04:20:41;101743.09;;;7.98;100.00
71504;BME280;59323;50.874;7.028;2024-02-21T04:23:06;101744.06;;;8.02;100.00
71504;BME280;59323;50.874;7.028;2024-02-21T04:25:32;101730.69;;;7.97;100.00
71504;BME280;59323;50.874;7.028;2024-02-21T04:27:59;101734.19;;;7.98;100.00
71504;BME280;59323;50.874;7.028;2024-02-21T04:30:25;101733.88;;;7.99;100.00
71504;BME280;59323;50.874;7.028;2024-02-21T04:32:51;101718.75;;;7.98;100.00
71504;BME280;59323;50.874;7.028;2024-02-21T04:35:18;101723.69;;;7.96;100.00
71504;BME280;59323;50.874;7.028;2024-02-21T04:37:49;101706.81;;;7.99;100.00
71504;BME280;59323;50.874;7.028;2024-02-21T04:40:14;101711.09;;;8.00;100.00
71504;BME280;59323;50.874;7.028;2024-02-21T04:42:44;101707.28;;;8.01;100.00
71504;BME280;59323;50.874;7.028;2024-02-21T04:45:09;101708.06;;;8.02;100.00
71504;BME280;59323;50.874;7.028;2024-02-21T04:47:35;101712.69;;;8.01;100.00
71504;BME280;59323;50.874;7.028;2024-02-21T04:50:00;101705.84;;;8.04;100.00
71504;BME280;59323;50.874;7.028;2024-02-21T04:52:28;101707.75;;;8.03;100.00
71504;BME280;59323;50.874;7.028;2024-02-21T04:54:56;101718.09;;;8.01;100.00
71504;BME280;59323;50.874;7.028;2024-02-21T04:57:25;101720.03;;;8.01;100.00
71504;BME280;59323;50.874;7.028;2024-02-21T04:59:56;101715.41;;;8.01;100.00
71504;BME280;59323;50.874;7.028;2024-02-21T05:02:21;101707.13;;;7.98;100.00
71504;BME280;59323;50.874;7.028;2024-02-21T05:04:52;101710.16;;;7.96;100.00
71504;BME280;59323;50.874;7.028;2024-02-21T05:07:18;101707.78;;;7.94;100.00
71504;BME280;59323;50.874;7.028;2024-02-21T05:09:47;101708.72;;;7.99;100.00
71504;BME280;59323;50.874;7.028;2024-02-21T05:12:14;101713.34;;;7.98;100.00
71504;BME280;59323;50.874;7.028;2024-02-21T05:14:40;101710.63;;;7.98;100.00
71504;BME280;59323;50.874;7.028;2024-02-21T05:17:05;101706.34;;;7.97;100.00
71504;BME280;59323;50.874;7.028;2024-02-21T05:19:33;101700.13;;;7.97;100.00
71504;BME280;59323;50.874;7.028;2024-02-21T05:21:59;101700.44;;;7.95;100.00
71504;BME280;59323;50.874;7.028;2024-02-21T05:24:24;101706.34;;;7.97;100.00
71504;BME280;59323;50.874;7.028;2024-02-21T05:26:53;101710.63;;;7.98;100.00
71504;BME280;59323;50.874;7.028;2024-02-21T05:29:19;101706.66;;;7.95;100.00
71504;BME280;59323;50.874;7.028;2024-02-21T05:34:15;101704.59;;;7.92;100.00
71504;BME280;59323;50.874;7.028;2024-02-21T05:36:45;101694.88;;;7.91;100.00
71504;BME280;59323;50.874;7.028;2024-02-21T05:39:11;101687.56;;;7.92;100.00
71504;BME280;59323;50.874;7.028;2024-02-21T05:41:39;101687.56;;;7.92;100.00
71504;BME280;59323;50.874;7.028;2024-02-21T05:44:05;101671.66;;;7.90;100.00
71504;BME280;59323;50.874;7.028;2024-02-21T05:46:30;101674.34;;;7.90;100.00
71504;BME280;59323;50.874;7.028;2024-02-21T05:48:57;101677.84;;;7.91;100.00
71504;BME280;59323;50.874;7.028;2024-02-21T05:51:23;101672.78;;;7.89;100.00
71504;BME280;59323;50.874;7.028;2024-02-21T05:53:51;101677.53;;;7.92;100.00
71504;BME280;59323;50.874;7.028;2024-02-21T05:56:16;101682.63;;;7.94;100.00
71504;BME280;59323;50.874;7.028;2024-02-21T05:58:43;101676.75;;;7.92;100.00
71504;BME280;59323;50.874;7.028;2024-02-21T06:01:09;101677.84;;;7.91;100.00
71504;BME280;59323;50.874;7.028;2024-02-21T06:03:34;101687.88;;;7.90;100.00
71504;BME280;59323;50.874;7.028;2024-02-21T06:06:02;101672.91;;;7.93;100.00
71504;BME280;59323;50.874;7.028;2024-02-21T06:08:27;101685.66;;;7.92;100.00
71504;BME280;59323;50.874;7.028;2024-02-21T06:10:52;101674.03;;;7.92;100.00
71504;BME280;59323;50.874;7.028;2024-02-21T06:13:20;101676.41;;;7.93;100.00
71504;BME280;59323;50.874;7.028;2024-02-21T06:15:47;101667.03;;;7.91;100.00
71504;BME280;59323;50.874;7.028;2024-02-21T06:18:18;101656.34;;;7.94;100.00
71504;BME280;59323;50.874;7.028;2024-02-21T06:20:46;101654.78;;;7.93;100.00
71504;BME280;59323;50.874;7.028;2024-02-21T06:23:17;101650.78;;;7.91;100.00
71504;BME280;59323;50.874;7.028;2024-02-21T06:25:47;101650.00;;;7.90;100.00
71504;BME280;59323;50.874;7.028;2024-02-21T06:36:13;101631.09;;;7.82;100.00
71504;BME280;59323;50.874;7.028;2024-02-21T06:38:43;101638.09;;;7.83;100.00
71504;BME280;59323;50.874;7.028;2024-02-21T06:41:19;101623.44;;;7.84;100.00
71504;BME280;59323;50.874;7.028;2024-02-21T06:43:48;101626.78;;;7.81;100.00
71504;BME280;59323;50.874;7.028;2024-02-21T06:46:37;101632.19;;;7.89;100.00
71504;BME280;59323;50.874;7.028;2024-02-21T06:49:12;101624.25;;;7.84;100.00
71504;BME280;59323;50.874;7.028;2024-02-21T06:51:47;101612.16;;;7.82;100.00
71504;BME280;59323;50.874;7.028;2024-02-21T06:54:22;101607.34;;;7.79;100.00
71504;BME280;59323;50.874;7.028;2024-02-21T06:57:08;101622.63;;;7.92;100.00
71504;BME280;59323;50.874;7.028;2024-02-21T06:59:37;101597.31;;;7.79;100.00
71504;BME280;59323;50.874;7.028;2024-02-21T07:02:14;101601.78;;;7.84;100.00
71504;BME280;59323;50.874;7.028;2024-02-21T07:25:23;101591.75;;;7.84;100.00
71504;BME280;59323;50.874;7.028;2024-02-21T07:31:30;101592.72;;;7.88;100.00
71504;BME280;59323;50.874;7.028;2024-02-21T07:34:02;101591.91;;;7.88;100.00
71504;BME280;59323;50.874;7.028;2024-02-21T07:40:30;101607.00;;;7.98;100.00
71504;BME280;59323;50.874;7.028;2024-02-21T07:52:50;101596.34;;;7.92;100.00
71504;BME280;59323;50.874;7.028;2024-02-21T09:26:27;101469.00;;;9.63;100.00
71504;BME280;59323;50.874;7.028;2024-02-21T09:41:27;101460.28;;;9.69;100.00
71504;BME280;59323;50.874;7.028;2024-02-21T09:55:15;101417.13;;;9.76;100.00
71504;BME280;59323;50.874;7.028;2024-02-21T09:58:08;101421.28;;;9.86;100.00
71504;BME280;59323;50.874;7.028;2024-02-21T10:10:45;101419.44;;;10.02;100.00
71504;BME280;59323;50.874;7.028;2024-02-21T10:13:45;101411.50;;;10.09;100.00
71504;BME280;59323;50.874;7.028;2024-02-21T12:01:25;101160.59;;;11.12;91.04
71504;BME280;59323;50.874;7.028;2024-02-21T12:13:43;101120.56;;;11.13;89.21
71504;BME280;59323;50.874;7.028;2024-02-21T12:26:23;101078.19;;;11.11;90.58
71504;BME280;59323;50.874;7.028;2024-02-21T12:41:05;101066.81;;;11.25;90.08
71504;BME280;59323;50.874;7.028;2024-02-21T12:43:30;101045.63;;;11.15;91.66
71504;BME280;59323;50.874;7.028;2024-02-21T12:49:31;101015.00;;;11.18;92.63
71504;BME280;59323;50.874;7.028;2024-02-21T12:52:19;101019.91;;;11.32;91.47
71504;BME280;59323;50.874;7.028;2024-02-21T12:54:50;100985.97;;;11.26;91.51
71504;BME280;59323;50.874;7.028;2024-02-21T12:57:25;100971.66;;;11.29;90.40
71504;BME280;59323;50.874;7.028;2024-02-21T13:00:11;100956.00;;;11.22;90.27
71504;BME280;59323;50.874;7.028;2024-02-21T13:10:36;100905.75;;;11.16;89.59
71504;BME280;59323;50.874;7.028;2024-02-21T13:18:01;100876.25;;;11.18;90.61
71504;BME280;59323;50.874;7.028;2024-02-21T14:11:42;100808.31;;;11.22;88.41
71504;BME280;59323;50.874;7.028;2024-02-21T14:14:53;100816.13;;;11.23;90.91
71504;BME280;59323;50.874;7.028;2024-02-21T14:17:30;100818.84;;;11.23;93.46
71504;BME280;59323;50.874;7.028;2024-02-21T14:20:22;100800.09;;;11.18;94.01
71504;BME280;59323;50.874;7.028;2024-02-21T14:23:06;100809.78;;;11.16;92.60
71504;BME280;59323;50.874;7.028;2024-02-21T14:25:54;100804.81;;;11.21;90.50
71504;BME280;59323;50.874;7.028;2024-02-21T14:28:30;100782.94;;;11.14;89.87
71504;BME280;59323;50.874;7.028;2024-02-21T14:31:00;100796.66;;;11.21;87.89
71504;BME280;59323;50.874;7.028;2024-02-21T14:33:34;100769.78;;;11.16;87.10
71504;BME280;59323;50.874;7.028;2024-02-21T14:36:17;100772.06;;;11.14;86.25
71504;BME280;59323;50.874;7.028;2024-02-21T14:39:09;100762.75;;;11.15;86.58
71504;BME280;59323;50.874;7.028;2024-02-21T14:41:42;100749.13;;;11.11;88.92
71504;BME280;59323;50.874;7.028;2024-02-21T14:44:34;100760.72;;;11.08;90.87
71504;BME280;59323;50.874;7.028;2024-02-21T14:47:32;100759.63;;;11.13;92.45
71504;BME280;59323;50.874;7.028;2024-02-21T14:50:08;100728.47;;;11.07;92.60
71504;BME280;59323;50.874;7.028;2024-02-21T14:52:39;100724.97;;;11.06;93.19
71504;BME280;59323;50.874;7.028;2024-02-21T14:55:19;100721.00;;;11.04;93.25
71504;BME280;59323;50.874;7.028;2024-02-21T14:57:51;100729.06;;;10.97;94.07
71504;BME280;59323;50.874;7.028;2024-02-21T15:00:22;100719.25;;;10.89;94.61
71504;BME280;59323;50.874;7.028;2024-02-21T15:02:58;100713.81;;;10.89;94.24
71504;BME280;59323;50.874;7.028;2024-02-21T15:05:29;100702.94;;;10.89;94.74
71504;BME280;59323;50.874;7.028;2024-02-21T15:08:06;100705.22;;;10.87;94.31
71504;BME280;59323;50.874;7.028;2024-02-21T15:10:42;100700.53;;;10.84;95.42
71504;BME280;59323;50.874;7.028;2024-02-21T15:13:18;100680.66;;;10.79;95.48
71504;BME280;59323;50.874;7.028;2024-02-21T15:15:55;100699.06;;;10.90;93.51
71504;BME280;59323;50.874;7.028;2024-02-21T15:18:34;100653.50;;;10.79;93.29
71504;BME280;59323;50.874;7.028;2024-02-21T15:21:08;100655.41;;;10.79;93.18
71504;BME280;59323;50.874;7.028;2024-02-21T15:23:49;100669.94;;;10.90;89.37
71504;BME280;59323;50.874;7.028;2024-02-21T15:26:30;100667.19;;;10.87;84.76
71504;BME280;59323;50.874;7.028;2024-02-21T15:29:14;100649.81;;;10.95;73.90
71504;BME280;59323;50.874;7.028;2024-02-21T15:31:54;100648.59;;;10.92;72.00
71504;BME280;59323;50.874;7.028;2024-02-21T15:34:55;100654.19;;;11.03;70.31
71504;BME280;59323;50.874;7.028;2024-02-21T15:37:21;100635.53;;;11.01;69.89
71504;BME280;59323;50.874;7.028;2024-02-21T15:39:58;100642.91;;;11.01;72.11
71504;BME280;59323;50.874;7.028;2024-02-21T15:42:35;100628.75;;;10.88;75.89
71504;BME280;59323;50.874;7.028;2024-02-21T15:45:11;100634.56;;;10.87;77.21
71504;BME280;59323;50.874;7.028;2024-02-21T15:47:48;100633.03;;;10.89;76.96
71504;BME280;59323;50.874;7.028;2024-02-21T15:50:39;100636.22;;;10.95;72.75
71504;BME280;59323;50.874;7.028;2024-02-21T15:53:13;100619.44;;;10.89;71.66
71504;BME280;59323;50.874;7.028;2024-02-21T15:55:50;100620.97;;;10.87;70.72
71504;BME280;59323;50.874;7.028;2024-02-21T15:58:35;100612.13;;;10.93;70.46
71504;BME280;59323;50.874;7.028;2024-02-21T16:01:24;100609.34;;;10.90;70.05
71504;BME280;59323;50.874;7.028;2024-02-21T16:04:09;100615.53;;;10.87;70.35
71504;BME280;59323;50.874;7.028;2024-02-21T16:47:17;100510.22;;;10.20;73.17
71504;BME280;59323;50.874;7.028;2024-02-21T16:58:04;100511.59;;;10.10;74.26
71504;BME280;59323;50.874;7.028;2024-02-21T17:00:36;100496.78;;;10.04;75.28
71504;BME280;59323;50.874;7.028;2024-02-21T17:03:28;100507.13;;;9.95;74.91
71504;BME280;59323;50.874;7.028;2024-02-21T17:06:34;100505.53;;;9.94;75.52
71504;BME280;59323;50.874;7.028;2024-02-21T17:13:36;100492.03;;;9.98;76.59
71504;BME280;59323;50.874;7.028;2024-02-21T17:16:35;100491.25;;;9.97;75.62
71504;BME280;59323;50.874;7.028;2024-02-21T17:19:16;100491.25;;;9.97;75.43
71504;BME280;59323;50.874;7.028;2024-02-21T17:21:45;100468.66;;;9.90;76.78
71504;BME280;59323;50.874;7.028;2024-02-21T17:24:47;100467.88;;;9.89;76.42
71504;BME280;59323;50.874;7.028;2024-02-21T17:27:24;100478.72;;;9.89;76.66
71504;BME280;59323;50.874;7.028;2024-02-21T17:30:08;100480.28;;;9.90;76.95
71504;BME280;59323;50.874;7.028;2024-02-21T17:32:34;100481.00;;;9.87;77.48
71504;BME280;59323;50.874;7.028;2024-02-21T17:35:00;100479.91;;;9.92;76.65
71504;BME280;59323;50.874;7.028;2024-02-21T17:37:30;100475.97;;;9.85;77.29
71504;BME280;59323;50.874;7.028;2024-02-21T17:39:55;100468.59;;;9.86;77.22
71504;BME280;59323;50.874;7.028;2024-02-21T17:42:23;100458.06;;;9.81;77.92
71504;BME280;59323;50.874;7.028;2024-02-21T17:44:52;100450.34;;;9.83;77.53
71504;BME280;59323;50.874;7.028;2024-02-21T17:47:17;100451.91;;;9.84;76.87
71504;BME280;59323;50.874;7.028;2024-02-21T17:49:42;100442.91;;;9.80;78.81
71504;BME280;59323;50.874;7.028;2024-02-21T17:52:09;100429.31;;;9.76;79.04
71504;BME280;59323;50.874;7.028;2024-02-21T17:54:35;100425.84;;;9.79;79.32
71504;BME280;59323;50.874;7.028;2024-02-21T17:57:01;100428.94;;;9.78;79.57
71504;BME280;59323;50.874;7.028;2024-02-21T17:59:26;100414.50;;;9.74;79.82
71504;BME280;59323;50.874;7.028;2024-02-21T18:01:51;100421.44;;;9.71;81.61
71504;BME280;59323;50.874;7.028;2024-02-21T18:04:19;100414.81;;;9.69;82.09
71504;BME280;59323;50.874;7.028;2024-02-21T18:06:45;100405.44;;;9.63;84.17
71504;BME280;59323;50.874;7.028;2024-02-21T18:09:10;100386.09;;;9.64;82.80
71504;BME280;59323;50.874;7.028;2024-02-21T18:11:36;100376.31;;;9.60;83.16
71504;BME280;59323;50.874;7.028;2024-02-21T18:14:01;100369.66;;;9.53;84.24
71504;BME280;59323;50.874;7.028;2024-02-21T18:16:30;100369.13;;;9.44;85.05
71504;BME280;59323;50.874;7.028;2024-02-21T18:18:55;100356.31;;;9.41;85.75
71504;BME280;59323;50.874;7.028;2024-02-21T18:21:20;100353.97;;;9.40;87.50
71504;BME280;59323;50.874;7.028;2024-02-21T18:23:46;100340.31;;;9.33;88.62
71504;BME280;59323;50.874;7.028;2024-02-21T18:26:11;100325.19;;;9.32;89.10
71504;BME280;59323;50.874;7.028;2024-02-21T18:28:37;100324.41;;;9.31;89.18
71504;BME280;59323;50.874;7.028;2024-02-21T18:31:02;100319.59;;;9.21;93.46
71504;BME280;59323;50.874;7.028;2024-02-21T18:33:30;100309.91;;;9.20;94.15
71504;BME280;59323;50.874;7.028;2024-02-21T18:35:58;100311.72;;;9.12;95.09
71504;BME280;59323;50.874;7.028;2024-02-21T18:38:26;100305.81;;;9.07;97.21
71504;BME280;59323;50.874;7.028;2024-02-21T18:40:51;100306.84;;;8.99;99.74
71504;BME280;59323;50.874;7.028;2024-02-21T18:43:17;100296.69;;;8.92;100.00
71504;BME280;59323;50.874;7.028;2024-02-21T18:45:42;100293.88;;;8.85;100.00
71504;BME280;59323;50.874;7.028;2024-02-21T18:48:07;100280.69;;;8.83;100.00
71504;BME280;59323;50.874;7.028;2024-02-21T18:50:33;100278.28;;;8.78;100.00
71504;BME280;59323;50.874;7.028;2024-02-21T18:52:58;100273.59;;;8.75;100.00
71504;BME280;59323;50.874;7.028;2024-02-21T18:55:25;100261.56;;;8.73;100.00
71504;BME280;59323;50.874;7.028;2024-02-21T18:57:51;100267.22;;;8.64;100.00
71504;BME280;59323;50.874;7.028;2024-02-21T19:00:17;100255.25;;;8.65;100.00
71504;BME280;59323;50.874;7.028;2024-02-21T19:02:50;100252.13;;;8.63;100.00
71504;BME280;59323;50.874;7.028;2024-02-21T19:05:16;100261.28;;;8.55;100.00
71504;BME280;59323;50.874;7.028;2024-02-21T19:07:41;100251.16;;;8.52;100.00
71504;BME280;59323;50.874;7.028;2024-02-21T19:10:07;100249.91;;;8.46;100.00
71504;BME280;59323;50.874;7.028;2024-02-21T19:12:36;100256.00;;;8.43;100.00
71504;BME280;59323;50.874;7.028;2024-02-21T19:15:03;100253.28;;;8.43;100.00
71504;BME280;59323;50.874;7.028;2024-02-21T19:17:29;100257.16;;;8.42;100.00
71504;BME280;59323;50.874;7.028;2024-02-21T19:19:56;100252.47;;;8.39;100.00
71504;BME280;59323;50.874;7.028;2024-02-21T19:22:21;100255.59;;;8.41;100.00
71504;BME280;59323;50.874;7.028;2024-02-21T19:24:52;100247.47;;;8.41;100.00
71504;BME280;59323;50.874;7.028;2024-02-21T19:27:17;100237.78;;;8.40;100.00
71504;BME280;59323;50.874;7.028;2024-02-21T19:29:43;100239.66;;;8.36;100.00
71504;BME280;59323;50.874;7.028;2024-02-21T19:32:10;100237.28;;;8.34;100.00
71504;BME280;59323;50.874;7.028;2024-02-21T19:34:40;100226.47;;;8.34;100.00
71504;BME280;59323;50.874;7.028;2024-02-21T19:37:05;100227.25;;;8.35;100.00
71504;BME280;59323;50.874;7.028;2024-02-21T19:39:33;100216.78;;;8.33;100.00
71504;BME280;59323;50.874;7.028;2024-02-21T19:41:58;100209.88;;;8.36;100.00
71504;BME280;59323;50.874;7.028;2024-02-21T19:44:23;100200.59;;;8.37;100.00
71504;BME280;59323;50.874;7.028;2024-02-21T19:46:49;100189.00;;;8.36;100.00
71504;BME280;59323;50.874;7.028;2024-02-21T19:49:16;100185.50;;;8.36;100.00
71504;BME280;59323;50.874;7.028;2024-02-21T19:51:46;100171.97;;;8.36;100.00
71504;BME280;59323;50.874;7.028;2024-02-21T19:54:14;100171.53;;;8.34;100.00
71504;BME280;59323;50.874;7.028;2024-02-21T19:56:44;100168.47;;;8.35;100.00
71504;BME280;59323;50.874;7.028;2024-02-21T19:59:12;100160.34;;;8.35;100.00
71504;BME280;59323;50.874;7.028;2024-02-21T20:01:40;100151.88;;;8.37;100.00
71504;BME280;59323;50.874;7.028;2024-02-21T20:04:07;100145.25;;;8.34;100.00
71504;BME280;59323;50.874;7.028;2024-02-21T20:06:38;100146.03;;;8.35;100.00
71504;BME280;59323;50.874;7.028;2024-02-21T20:09:05;100135.13;;;8.31;100.00
71504;BME280;59323;50.874;7.028;2024-02-21T20:11:34;100129.72;;;8.31;100.00
71504;BME280;59323;50.874;7.028;2024-02-21T20:13:59;100123.09;;;8.28;100.00